sensor_id;sensor_type;location;lat;lon;timestamp;P1;durP1;ratioP1;P2;durP2;ratioP2
42912;SDS011;50720;54.324;18.558;2024-01-27T00:02:13;20.63;;;3.22;;
42912;SDS011;50720;54.324;18.558;2024-01-27T00:04:43;16.98;;;3.10;;
42912;SDS011;50720;54.324;18.558;2024-01-27T00:07:13;12.30;;;3.10;;
42912;SDS011;50720;54.324;18.558;2024-01-27T00:09:43;9.45;;;2.20;;
42912;SDS011;50720;54.324;18.558;2024-01-27T00:12:14;12.27;;;1.92;;
42912;SDS011;50720;54.324;18.558;2024-01-27T00:14:44;18.80;;;3.50;;
42912;SDS011;50720;54.324;18.558;2024-01-27T00:17:15;14.57;;;2.20;;
42912;SDS011;50720;54.324;18.558;2024-01-27T00:19:47;15.10;;;2.45;;
42912;SDS011;50720;54.324;18.558;2024-01-27T00:22:17;8.93;;;1.83;;
42912;SDS011;50720;54.324;18.558;2024-01-27T00:24:48;10.15;;;2.33;;
42912;SDS011;50720;54.324;18.558;2024-01-27T00:27:18;14.07;;;1.80;;
42912;SDS011;50720;54.324;18.558;2024-01-27T00:29:48;11.93;;;2.00;;
42912;SDS011;50720;54.324;18.558;2024-01-27T00:32:20;15.70;;;2.22;;
42912;SDS011;50720;54.324;18.558;2024-01-27T00:34:50;10.50;;;1.70;;
42912;SDS011;50720;54.324;18.558;2024-01-27T00:37:20;7.32;;;1.65;;
42912;SDS011;50720;54.324;18.558;2024-01-27T00:39:50;9.63;;;1.90;;
42912;SDS011;50720;54.324;18.558;2024-01-27T00:42:20;7.32;;;1.95;;
42912;SDS011;50720;54.324;18.558;2024-01-27T00:44:52;10.07;;;1.83;;
42912;SDS011;50720;54.324;18.558;2024-01-27T00:47:24;9.18;;;2.58;;
42912;SDS011;50720;54.324;18.558;2024-01-27T00:49:54;10.02;;;2.63;;
42912;SDS011;50720;54.324;18.558;2024-01-27T00:52:24;11.23;;;1.97;;
42912;SDS011;50720;54.324;18.558;2024-01-27T00:54:54;8.50;;;2.17;;
42912;SDS011;50720;54.324;18.558;2024-01-27T00:57:24;7.97;;;1.50;;
42912;SDS011;50720;54.324;18.558;2024-01-27T00:59:54;13.75;;;1.83;;
42912;SDS011;50720;54.324;18.558;2024-01-27T01:02:26;11.52;;;1.80;;
42912;SDS011;50720;54.324;18.558;2024-01-27T01:04:56;9.35;;;1.63;;
42912;SDS011;50720;54.324;18.558;2024-01-27T01:07:26;3.60;;;1.03;;
42912;SDS011;50720;54.324;18.558;2024-01-27T01:09:56;5.32;;;2.03;;
42912;SDS011;50720;54.324;18.558;2024-01-27T01:12:26;7.55;;;1.40;;
42912;SDS011;50720;54.324;18.558;2024-01-27T01:14:56;7.05;;;1.77;;
42912;SDS011;50720;54.324;18.558;2024-01-27T01:17:28;8.85;;;1.48;;
42912;SDS011;50720;54.324;18.558;2024-01-27T01:19:58;7.03;;;2.10;;
42912;SDS011;50720;54.324;18.558;2024-01-27T01:22:29;5.15;;;1.50;;
42912;SDS011;50720;54.324;18.558;2024-01-27T01:24:58;6.28;;;1.73;;
42912;SDS011;50720;54.324;18.558;2024-01-27T01:27:29;8.63;;;2.07;;
42912;SDS011;50720;54.324;18.558;2024-01-27T01:29:58;4.30;;;0.85;;
42912;SDS011;50720;54.324;18.558;2024-01-27T01:32:30;9.35;;;1.95;;
42912;SDS011;50720;54.324;18.558;2024-01-27T01:35:00;8.32;;;2.17;;
42912;SDS011;50720;54.324;18.558;2024-01-27T01:37:30;8.82;;;2.67;;
42912;SDS011;50720;54.324;18.558;2024-01-27T01:40:00;5.97;;;1.35;;
42912;SDS011;50720;54.324;18.558;2024-01-27T01:42:31;9.27;;;1.20;;
42912;SDS011;50720;54.324;18.558;2024-01-27T01:45:01;4.57;;;1.20;;
42912;SDS011;50720;54.324;18.558;2024-01-27T01:47:33;7.40;;;1.05;;
42912;SDS011;50720;54.324;18.558;2024-01-27T01:50:04;4.88;;;1.52;;
42912;SDS011;50720;54.324;18.558;2024-01-27T01:52:36;3.35;;;1.00;;
42912;SDS011;50720;54.324;18.558;2024-01-27T01:57:37;7.30;;;0.98;;
42912;SDS011;50720;54.324;18.558;2024-01-27T02:00:07;7.97;;;1.45;;
42912;SDS011;50720;54.324;18.558;2024-01-27T02:02:40;8.05;;;1.02;;
42912;SDS011;50720;54.324;18.558;2024-01-27T02:05:12;7.75;;;1.27;;
42912;SDS011;50720;54.324;18.558;2024-01-27T02:07:42;12.35;;;2.70;;
42912;SDS011;50720;54.324;18.558;2024-01-27T02:10:13;2.05;;;0.73;;
42912;SDS011;50720;54.324;18.558;2024-01-27T02:12:44;2.13;;;0.55;;
42912;SDS011;50720;54.324;18.558;2024-01-27T02:15:14;9.73;;;1.23;;
42912;SDS011;50720;54.324;18.558;2024-01-27T02:17:45;1.98;;;0.63;;
42912;SDS011;50720;54.324;18.558;2024-01-27T02:20:16;10.05;;;0.90;;
42912;SDS011;50720;54.324;18.558;2024-01-27T02:22:46;6.00;;;0.90;;
42912;SDS011;50720;54.324;18.558;2024-01-27T02:25:17;3.10;;;0.73;;
42912;SDS011;50720;54.324;18.558;2024-01-27T02:27:48;0.93;;;0.60;;
42912;SDS011;50720;54.324;18.558;2024-01-27T02:30:17;10.02;;;3.65;;
42912;SDS011;50720;54.324;18.558;2024-01-27T02:32:48;0.52;;;0.28;;
42912;SDS011;50720;54.324;18.558;2024-01-27T02:35:18;1.33;;;0.40;;
42912;SDS011;50720;54.324;18.558;2024-01-27T02:37:48;4.80;;;1.10;;
42912;SDS011;50720;54.324;18.558;2024-01-27T02:40:19;1.10;;;0.40;;
42912;SDS011;50720;54.324;18.558;2024-01-27T02:42:49;3.72;;;0.30;;
42912;SDS011;50720;54.324;18.558;2024-01-27T02:45:19;6.70;;;0.45;;
42912;SDS011;50720;54.324;18.558;2024-01-27T02:47:50;2.80;;;0.30;;
42912;SDS011;50720;54.324;18.558;2024-01-27T02:50:20;3.40;;;0.40;;
42912;SDS011;50720;54.324;18.558;2024-01-27T02:52:50;5.37;;;0.67;;
42912;SDS011;50720;54.324;18.558;2024-01-27T02:55:21;3.88;;;1.30;;
42912;SDS011;50720;54.324;18.558;2024-01-27T02:57:51;1.42;;;0.40;;
42912;SDS011;50720;54.324;18.558;2024-01-27T03:00:21;1.85;;;0.30;;
42912;SDS011;50720;54.324;18.558;2024-01-27T03:02:52;1.80;;;0.22;;
42912;SDS011;50720;54.324;18.558;2024-01-27T03:05:21;2.80;;;0.45;;
42912;SDS011;50720;54.324;18.558;2024-01-27T03:07:52;3.65;;;0.73;;
42912;SDS011;50720;54.324;18.558;2024-01-27T03:10:23;3.40;;;0.70;;
42912;SDS011;50720;54.324;18.558;2024-01-27T03:12:54;3.63;;;0.80;;
42912;SDS011;50720;54.324;18.558;2024-01-27T03:15:24;2.60;;;1.65;;
42912;SDS011;50720;54.324;18.558;2024-01-27T03:17:54;1.77;;;0.40;;
42912;SDS011;50720;54.324;18.558;2024-01-27T03:20:24;0.43;;;0.30;;
42912;SDS011;50720;54.324;18.558;2024-01-27T03:22:55;2.50;;;0.52;;
42912;SDS011;50720;54.324;18.558;2024-01-27T03:25:26;3.90;;;0.70;;
42912;SDS011;50720;54.324;18.558;2024-01-27T03:27:57;7.72;;;1.00;;
42912;SDS011;50720;54.324;18.558;2024-01-27T03:30:28;5.82;;;0.50;;
42912;SDS011;50720;54.324;18.558;2024-01-27T03:32:58;2.58;;;0.55;;
42912;SDS011;50720;54.324;18.558;2024-01-27T03:35:28;2.13;;;0.60;;
42912;SDS011;50720;54.324;18.558;2024-01-27T03:37:58;6.63;;;1.07;;
42912;SDS011;50720;54.324;18.558;2024-01-27T03:40:32;4.68;;;0.60;;
42912;SDS011;50720;54.324;18.558;2024-01-27T03:43:02;3.13;;;0.70;;
42912;SDS011;50720;54.324;18.558;2024-01-27T03:45:32;6.82;;;0.95;;
42912;SDS011;50720;54.324;18.558;2024-01-27T03:48:03;3.22;;;0.50;;
42912;SDS011;50720;54.324;18.558;2024-01-27T03:50:33;2.75;;;0.50;;
42912;SDS011;50720;54.324;18.558;2024-01-27T03:53:04;0.87;;;0.30;;
42912;SDS011;50720;54.324;18.558;2024-01-27T03:55:35;3.83;;;0.50;;
42912;SDS011;50720;54.324;18.558;2024-01-27T03:58:05;0.98;;;0.30;;
42912;SDS011;50720;54.324;18.558;2024-01-27T04:00:35;4.25;;;0.73;;
42912;SDS011;50720;54.324;18.558;2024-01-27T04:03:07;2.30;;;0.63;;
42912;SDS011;50720;54.324;18.558;2024-01-27T04:05:37;1.98;;;0.43;;
42912;SDS011;50720;54.324;18.558;2024-01-27T04:08:07;2.95;;;0.55;;
42912;SDS011;50720;54.324;18.558;2024-01-27T04:10:39;2.45;;;0.50;;
42912;SDS011;50720;54.324;18.558;2024-01-27T04:13:09;0.60;;;0.20;;
42912;SDS011;50720;54.324;18.558;2024-01-27T04:15:39;3.13;;;0.65;;
42912;SDS011;50720;54.324;18.558;2024-01-27T04:18:09;3.47;;;0.65;;
42912;SDS011;50720;54.324;18.558;2024-01-27T04:20:39;0.95;;;0.22;;
42912;SDS011;50720;54.324;18.558;2024-01-27T04:23:09;4.87;;;0.90;;
42912;SDS011;50720;54.324;18.558;2024-01-27T04:25:41;1.52;;;0.30;;
42912;SDS011;50720;54.324;18.558;2024-01-27T04:28:11;2.67;;;0.30;;
42912;SDS011;50720;54.324;18.558;2024-01-27T04:30:41;6.32;;;0.50;;
42912;SDS011;50720;54.324;18.558;2024-01-27T04:33:12;1.33;;;0.60;;
42912;SDS011;50720;54.324;18.558;2024-01-27T04:35:42;2.60;;;0.60;;
42912;SDS011;50720;54.324;18.558;2024-01-27T04:38:12;5.63;;;0.60;;
42912;SDS011;50720;54.324;18.558;2024-01-27T04:40:43;4.13;;;0.38;;
42912;SDS011;50720;54.324;18.558;2024-01-27T04:43:14;4.35;;;0.50;;
42912;SDS011;50720;54.324;18.558;2024-01-27T04:45:44;2.40;;;0.50;;
42912;SDS011;50720;54.324;18.558;2024-01-27T04:48:14;2.05;;;0.50;;
42912;SDS011;50720;54.324;18.558;2024-01-27T04:50:45;3.15;;;0.40;;
42912;SDS011;50720;54.324;18.558;2024-01-27T04:53:16;4.00;;;0.55;;
42912;SDS011;50720;54.324;18.558;2024-01-27T04:55:47;2.50;;;0.50;;
42912;SDS011;50720;54.324;18.558;2024-01-27T04:58:17;3.90;;;0.50;;
42912;SDS011;50720;54.324;18.558;2024-01-27T05:00:47;0.80;;;0.43;;
42912;SDS011;50720;54.324;18.558;2024-01-27T05:03:17;0.25;;;0.17;;
42912;SDS011;50720;54.324;18.558;2024-01-27T05:05:47;0.95;;;0.50;;
42912;SDS011;50720;54.324;18.558;2024-01-27T05:08:17;1.48;;;0.32;;
42912;SDS011;50720;54.324;18.558;2024-01-27T05:10:49;0.80;;;0.65;;
42912;SDS011;50720;54.324;18.558;2024-01-27T05:13:23;1.98;;;0.30;;
42912;SDS011;50720;54.324;18.558;2024-01-27T05:15:53;0.38;;;0.13;;
42912;SDS011;50720;54.324;18.558;2024-01-27T05:18:23;0.33;;;0.30;;
42912;SDS011;50720;54.324;18.558;2024-01-27T05:20:53;0.73;;;0.13;;
42912;SDS011;50720;54.324;18.558;2024-01-27T05:23:23;0.30;;;0.30;;
42912;SDS011;50720;54.324;18.558;2024-01-27T05:25:55;0.22;;;0.10;;
42912;SDS011;50720;54.324;18.558;2024-01-27T05:28:25;0.65;;;0.28;;
42912;SDS011;50720;54.324;18.558;2024-01-27T05:30:55;1.70;;;0.28;;
42912;SDS011;50720;54.324;18.558;2024-01-27T05:33:25;0.33;;;0.17;;
42912;SDS011;50720;54.324;18.558;2024-01-27T05:35:55;0.30;;;0.23;;
42912;SDS011;50720;54.324;18.558;2024-01-27T05:38:27;0.20;;;0.20;;
42912;SDS011;50720;54.324;18.558;2024-01-27T05:41:00;0.30;;;0.20;;
42912;SDS011;50720;54.324;18.558;2024-01-27T05:43:30;1.05;;;0.57;;
42912;SDS011;50720;54.324;18.558;2024-01-27T05:46:00;0.52;;;0.20;;
42912;SDS011;50720;54.324;18.558;2024-01-27T05:48:30;0.63;;;0.63;;
42912;SDS011;50720;54.324;18.558;2024-01-27T05:51:01;1.20;;;0.60;;
42912;SDS011;50720;54.324;18.558;2024-01-27T05:53:31;1.40;;;0.50;;
42912;SDS011;50720;54.324;18.558;2024-01-27T05:56:05;0.45;;;0.20;;
42912;SDS011;50720;54.324;18.558;2024-01-27T05:58:35;0.28;;;0.28;;
42912;SDS011;50720;54.324;18.558;2024-01-27T06:01:05;0.85;;;0.20;;
42912;SDS011;50720;54.324;18.558;2024-01-27T06:06:05;0.75;;;0.30;;
42912;SDS011;50720;54.324;18.558;2024-01-27T06:08:36;0.45;;;0.25;;
42912;SDS011;50720;54.324;18.558;2024-01-27T06:11:07;1.10;;;0.60;;
42912;SDS011;50720;54.324;18.558;2024-01-27T06:13:38;1.58;;;0.85;;
42912;SDS011;50720;54.324;18.558;2024-01-27T06:16:08;6.75;;;2.13;;
42912;SDS011;50720;54.324;18.558;2024-01-27T06:18:39;15.38;;;3.50;;
42912;SDS011;50720;54.324;18.558;2024-01-27T06:21:10;6.03;;;2.55;;
42912;SDS011;50720;54.324;18.558;2024-01-27T06:23:41;2.92;;;1.17;;
42912;SDS011;50720;54.324;18.558;2024-01-27T06:26:12;2.38;;;1.15;;
42912;SDS011;50720;54.324;18.558;2024-01-27T06:28:43;3.90;;;1.05;;
42912;SDS011;50720;54.324;18.558;2024-01-27T06:31:13;3.28;;;1.23;;
42912;SDS011;50720;54.324;18.558;2024-01-27T06:33:44;1.50;;;0.93;;
42912;SDS011;50720;54.324;18.558;2024-01-27T06:36:14;1.73;;;1.23;;
42912;SDS011;50720;54.324;18.558;2024-01-27T06:38:45;1.98;;;0.98;;
42912;SDS011;50720;54.324;18.558;2024-01-27T06:41:16;4.03;;;0.93;;
42912;SDS011;50720;54.324;18.558;2024-01-27T06:43:46;1.67;;;0.85;;
42912;SDS011;50720;54.324;18.558;2024-01-27T06:46:16;3.42;;;0.88;;
42912;SDS011;50720;54.324;18.558;2024-01-27T06:48:46;3.08;;;0.75;;
42912;SDS011;50720;54.324;18.558;2024-01-27T06:51:16;3.03;;;0.77;;
42912;SDS011;50720;54.324;18.558;2024-01-27T06:53:47;0.95;;;0.55;;
42912;SDS011;50720;54.324;18.558;2024-01-27T06:56:18;4.22;;;0.70;;
42912;SDS011;50720;54.324;18.558;2024-01-27T06:58:48;1.25;;;0.50;;
42912;SDS011;50720;54.324;18.558;2024-01-27T07:01:18;1.42;;;0.50;;
42912;SDS011;50720;54.324;18.558;2024-01-27T07:03:49;1.77;;;1.02;;
42912;SDS011;50720;54.324;18.558;2024-01-27T07:06:18;3.20;;;0.98;;
42912;SDS011;50720;54.324;18.558;2024-01-27T07:08:49;3.20;;;0.52;;
42912;SDS011;50720;54.324;18.558;2024-01-27T07:11:20;0.52;;;0.45;;
42912;SDS011;50720;54.324;18.558;2024-01-27T07:13:51;1.13;;;0.60;;
42912;SDS011;50720;54.324;18.558;2024-01-27T07:16:20;1.25;;;0.70;;
42912;SDS011;50720;54.324;18.558;2024-01-27T07:18:51;1.35;;;0.90;;
42912;SDS011;50720;54.324;18.558;2024-01-27T07:21:21;3.67;;;1.73;;
42912;SDS011;50720;54.324;18.558;2024-01-27T07:23:51;3.13;;;1.13;;
42912;SDS011;50720;54.324;18.558;2024-01-27T07:26:23;2.45;;;1.20;;
42912;SDS011;50720;54.324;18.558;2024-01-27T07:28:53;3.72;;;1.38;;
42912;SDS011;50720;54.324;18.558;2024-01-27T07:31:23;1.15;;;0.73;;
42912;SDS011;50720;54.324;18.558;2024-01-27T07:33:54;2.08;;;0.95;;
42912;SDS011;50720;54.324;18.558;2024-01-27T07:36:24;1.13;;;0.65;;
42912;SDS011;50720;54.324;18.558;2024-01-27T07:38:58;1.77;;;0.90;;
42912;SDS011;50720;54.324;18.558;2024-01-27T07:41:30;1.65;;;1.02;;
42912;SDS011;50720;54.324;18.558;2024-01-27T07:44:06;3.30;;;1.45;;
42912;SDS011;50720;54.324;18.558;2024-01-27T07:46:37;4.20;;;2.45;;
42912;SDS011;50720;54.324;18.558;2024-01-27T07:49:08;2.40;;;1.45;;
42912;SDS011;50720;54.324;18.558;2024-01-27T07:51:40;5.10;;;2.80;;
42912;SDS011;50720;54.324;18.558;2024-01-27T07:54:10;7.50;;;2.13;;
42912;SDS011;50720;54.324;18.558;2024-01-27T07:56:42;1.73;;;1.15;;
42912;SDS011;50720;54.324;18.558;2024-01-27T07:59:12;1.60;;;0.75;;
42912;SDS011;50720;54.324;18.558;2024-01-27T08:01:43;1.00;;;0.90;;
42912;SDS011;50720;54.324;18.558;2024-01-27T08:04:13;2.38;;;0.98;;
42912;SDS011;50720;54.324;18.558;2024-01-27T08:06:47;1.42;;;0.50;;
42912;SDS011;50720;54.324;18.558;2024-01-27T08:09:18;1.38;;;0.82;;
42912;SDS011;50720;54.324;18.558;2024-01-27T08:11:49;2.60;;;1.23;;
42912;SDS011;50720;54.324;18.558;2024-01-27T08:14:20;2.70;;;1.23;;
42912;SDS011;50720;54.324;18.558;2024-01-27T08:16:50;3.42;;;0.52;;
42912;SDS011;50720;54.324;18.558;2024-01-27T08:19:25;3.40;;;1.27;;
42912;SDS011;50720;54.324;18.558;2024-01-27T08:21:55;3.20;;;0.68;;
42912;SDS011;50720;54.324;18.558;2024-01-27T08:24:26;0.80;;;0.77;;
42912;SDS011;50720;54.324;18.558;2024-01-27T08:26:57;1.80;;;0.82;;
42912;SDS011;50720;54.324;18.558;2024-01-27T08:29:29;2.75;;;0.93;;
42912;SDS011;50720;54.324;18.558;2024-01-27T08:31:59;1.27;;;0.60;;
42912;SDS011;50720;54.324;18.558;2024-01-27T08:34:29;3.25;;;1.17;;
42912;SDS011;50720;54.324;18.558;2024-01-27T08:37:00;2.40;;;0.50;;
42912;SDS011;50720;54.324;18.558;2024-01-27T08:39:31;4.10;;;1.25;;
42912;SDS011;50720;54.324;18.558;2024-01-27T08:42:02;3.17;;;1.05;;
42912;SDS011;50720;54.324;18.558;2024-01-27T08:44:32;2.33;;;1.23;;
42912;SDS011;50720;54.324;18.558;2024-01-27T08:47:02;2.38;;;1.60;;
42912;SDS011;50720;54.324;18.558;2024-01-27T08:49:35;2.28;;;1.40;;
42912;SDS011;50720;54.324;18.558;2024-01-27T08:52:05;2.55;;;1.08;;
42912;SDS011;50720;54.324;18.558;2024-01-27T08:54:35;3.13;;;0.90;;
42912;SDS011;50720;54.324;18.558;2024-01-27T08:57:07;1.33;;;0.73;;
42912;SDS011;50720;54.324;18.558;2024-01-27T08:59:37;4.60;;;1.77;;
42912;SDS011;50720;54.324;18.558;2024-01-27T09:02:07;4.03;;;1.30;;
42912;SDS011;50720;54.324;18.558;2024-01-27T09:04:37;5.10;;;2.40;;
42912;SDS011;50720;54.324;18.558;2024-01-27T09:07:07;1.75;;;0.88;;
42912;SDS011;50720;54.324;18.558;2024-01-27T09:09:37;1.90;;;0.95;;
42912;SDS011;50720;54.324;18.558;2024-01-27T09:12:08;1.90;;;1.25;;
42912;SDS011;50720;54.324;18.558;2024-01-27T09:14:39;2.35;;;1.13;;
42912;SDS011;50720;54.324;18.558;2024-01-27T09:17:09;2.53;;;1.10;;
42912;SDS011;50720;54.324;18.558;2024-01-27T09:19:40;2.03;;;1.10;;
42912;SDS011;50720;54.324;18.558;2024-01-27T09:22:10;3.67;;;1.27;;
42912;SDS011;50720;54.324;18.558;2024-01-27T09:24:40;1.88;;;1.20;;
42912;SDS011;50720;54.324;18.558;2024-01-27T09:27:12;6.97;;;1.40;;
42912;SDS011;50720;54.324;18.558;2024-01-27T09:29:42;1.50;;;1.10;;
42912;SDS011;50720;54.324;18.558;2024-01-27T09:32:12;2.13;;;0.90;;
42912;SDS011;50720;54.324;18.558;2024-01-27T09:34:42;2.05;;;1.17;;
42912;SDS011;50720;54.324;18.558;2024-01-27T09:37:12;2.78;;;1.00;;
42912;SDS011;50720;54.324;18.558;2024-01-27T09:39:43;2.30;;;1.05;;
42912;SDS011;50720;54.324;18.558;2024-01-27T09:42:14;5.10;;;2.90;;
42912;SDS011;50720;54.324;18.558;2024-01-27T09:44:44;3.90;;;1.42;;
42912;SDS011;50720;54.324;18.558;2024-01-27T09:47:18;6.25;;;1.83;;
42912;SDS011;50720;54.324;18.558;2024-01-27T09:52:19;5.60;;;1.13;;
42912;SDS011;50720;54.324;18.558;2024-01-27T09:54:49;3.72;;;1.00;;
42912;SDS011;50720;54.324;18.558;2024-01-27T09:57:22;2.90;;;1.08;;
42912;SDS011;50720;54.324;18.558;2024-01-27T09:59:52;2.97;;;1.25;;
42912;SDS011;50720;54.324;18.558;2024-01-27T10:02:22;3.15;;;1.10;;
42912;SDS011;50720;54.324;18.558;2024-01-27T10:04:58;9.02;;;2.65;;
42912;SDS011;50720;54.324;18.558;2024-01-27T10:07:29;4.70;;;1.75;;
42912;SDS011;50720;54.324;18.558;2024-01-27T10:10:00;6.22;;;1.45;;
42912;SDS011;50720;54.324;18.558;2024-01-27T10:12:31;5.07;;;1.25;;
42912;SDS011;50720;54.324;18.558;2024-01-27T10:15:03;2.60;;;1.70;;
42912;SDS011;50720;54.324;18.558;2024-01-27T10:17:33;2.63;;;1.88;;
42912;SDS011;50720;54.324;18.558;2024-01-27T10:20:05;4.70;;;1.67;;
42912;SDS011;50720;54.324;18.558;2024-01-27T10:22:37;3.70;;;1.05;;
42912;SDS011;50720;54.324;18.558;2024-01-27T10:25:08;6.47;;;1.27;;
42912;SDS011;50720;54.324;18.558;2024-01-27T10:27:40;8.00;;;1.70;;
42912;SDS011;50720;54.324;18.558;2024-01-27T10:30:14;3.97;;;1.73;;
42912;SDS011;50720;54.324;18.558;2024-01-27T10:32:54;3.80;;;1.50;;
42912;SDS011;50720;54.324;18.558;2024-01-27T10:35:26;5.30;;;1.45;;
42912;SDS011;50720;54.324;18.558;2024-01-27T10:37:56;2.53;;;1.20;;
42912;SDS011;50720;54.324;18.558;2024-01-27T10:40:26;3.17;;;1.45;;
42912;SDS011;50720;54.324;18.558;2024-01-27T10:43:02;8.40;;;1.95;;
42912;SDS011;50720;54.324;18.558;2024-01-27T10:45:36;5.40;;;1.67;;
42912;SDS011;50720;54.324;18.558;2024-01-27T10:48:08;5.00;;;2.08;;
42912;SDS011;50720;54.324;18.558;2024-01-27T10:50:40;4.00;;;1.35;;
42912;SDS011;50720;54.324;18.558;2024-01-27T10:53:17;3.63;;;0.77;;
42912;SDS011;50720;54.324;18.558;2024-01-27T10:55:55;5.57;;;1.52;;
42912;SDS011;50720;54.324;18.558;2024-01-27T10:58:28;2.83;;;0.90;;
42912;SDS011;50720;54.324;18.558;2024-01-27T11:01:00;2.72;;;0.98;;
42912;SDS011;50720;54.324;18.558;2024-01-27T11:03:31;3.30;;;0.90;;
42912;SDS011;50720;54.324;18.558;2024-01-27T11:06:02;4.13;;;1.40;;
42912;SDS011;50720;54.324;18.558;2024-01-27T11:08:34;2.78;;;1.00;;
42912;SDS011;50720;54.324;18.558;2024-01-27T11:11:09;3.13;;;0.95;;
42912;SDS011;50720;54.324;18.558;2024-01-27T11:13:40;2.53;;;0.93;;
42912;SDS011;50720;54.324;18.558;2024-01-27T11:16:16;2.35;;;1.00;;
42912;SDS011;50720;54.324;18.558;2024-01-27T11:18:47;6.20;;;1.58;;
42912;SDS011;50720;54.324;18.558;2024-01-27T11:21:18;7.00;;;1.30;;
42912;SDS011;50720;54.324;18.558;2024-01-27T11:23:48;3.43;;;1.20;;
42912;SDS011;50720;54.324;18.558;2024-01-27T11:26:19;2.97;;;0.98;;
42912;SDS011;50720;54.324;18.558;2024-01-27T11:28:52;5.20;;;1.08;;
42912;SDS011;50720;54.324;18.558;2024-01-27T11:31:22;3.45;;;0.93;;
42912;SDS011;50720;54.324;18.558;2024-01-27T11:33:52;4.28;;;1.25;;
42912;SDS011;50720;54.324;18.558;2024-01-27T11:36:23;1.58;;;1.05;;
42912;SDS011;50720;54.324;18.558;2024-01-27T11:38:54;3.95;;;1.25;;
42912;SDS011;50720;54.324;18.558;2024-01-27T11:43:57;2.17;;;1.17;;
42912;SDS011;50720;54.324;18.558;2024-01-27T11:46:29;5.22;;;1.27;;
42912;SDS011;50720;54.324;18.558;2024-01-27T11:48:59;3.90;;;1.20;;
42912;SDS011;50720;54.324;18.558;2024-01-27T11:51:29;6.95;;;1.13;;
42912;SDS011;50720;54.324;18.558;2024-01-27T11:53:59;2.17;;;1.02;;
42912;SDS011;50720;54.324;18.558;2024-01-27T11:56:30;3.50;;;1.45;;
42912;SDS011;50720;54.324;18.558;2024-01-27T11:59:01;4.53;;;1.05;;
42912;SDS011;50720;54.324;18.558;2024-01-27T12:01:31;4.63;;;1.55;;
42912;SDS011;50720;54.324;18.558;2024-01-27T12:04:04;5.20;;;1.38;;
42912;SDS011;50720;54.324;18.558;2024-01-27T12:06:35;7.13;;;1.58;;
42912;SDS011;50720;54.324;18.558;2024-01-27T12:09:06;11.93;;;3.13;;
42912;SDS011;50720;54.324;18.558;2024-01-27T12:11:39;7.65;;;1.33;;
42912;SDS011;50720;54.324;18.558;2024-01-27T12:14:11;3.40;;;1.20;;
42912;SDS011;50720;54.324;18.558;2024-01-27T12:16:41;5.22;;;1.67;;
42912;SDS011;50720;54.324;18.558;2024-01-27T12:19:11;3.17;;;1.17;;
42912;SDS011;50720;54.324;18.558;2024-01-27T12:21:47;4.93;;;0.77;;
42912;SDS011;50720;54.324;18.558;2024-01-27T12:24:17;4.55;;;1.25;;
42912;SDS011;50720;54.324;18.558;2024-01-27T12:26:49;4.45;;;1.33;;
42912;SDS011;50720;54.324;18.558;2024-01-27T12:29:21;3.58;;;1.33;;
42912;SDS011;50720;54.324;18.558;2024-01-27T12:31:51;5.22;;;1.65;;
42912;SDS011;50720;54.324;18.558;2024-01-27T12:34:21;6.75;;;1.90;;
42912;SDS011;50720;54.324;18.558;2024-01-27T12:36:52;6.30;;;1.27;;
42912;SDS011;50720;54.324;18.558;2024-01-27T12:39:22;4.65;;;1.67;;
42912;SDS011;50720;54.324;18.558;2024-01-27T12:41:52;8.27;;;2.25;;
42912;SDS011;50720;54.324;18.558;2024-01-27T12:44:23;17.90;;;2.38;;
42912;SDS011;50720;54.324;18.558;2024-01-27T12:46:54;6.35;;;0.95;;
42912;SDS011;50720;54.324;18.558;2024-01-27T12:49:24;4.43;;;1.50;;
42912;SDS011;50720;54.324;18.558;2024-01-27T12:51:55;9.90;;;1.50;;
42912;SDS011;50720;54.324;18.558;2024-01-27T12:54:24;5.78;;;1.85;;
42912;SDS011;50720;54.324;18.558;2024-01-27T12:56:55;13.43;;;2.15;;
42912;SDS011;50720;54.324;18.558;2024-01-27T12:59:27;3.17;;;1.50;;
42912;SDS011;50720;54.324;18.558;2024-01-27T13:01:57;3.83;;;1.55;;
42912;SDS011;50720;54.324;18.558;2024-01-27T13:04:27;11.63;;;1.48;;
42912;SDS011;50720;54.324;18.558;2024-01-27T13:06:58;8.25;;;1.45;;
42912;SDS011;50720;54.324;18.558;2024-01-27T13:09:28;8.52;;;1.90;;
42912;SDS011;50720;54.324;18.558;2024-01-27T13:11:58;5.13;;;1.65;;
42912;SDS011;50720;54.324;18.558;2024-01-27T13:14:29;5.95;;;1.63;;
42912;SDS011;50720;54.324;18.558;2024-01-27T13:17:00;5.30;;;2.13;;
42912;SDS011;50720;54.324;18.558;2024-01-27T13:19:29;6.10;;;2.05;;
42912;SDS011;50720;54.324;18.558;2024-01-27T13:22:00;6.43;;;2.13;;
42912;SDS011;50720;54.324;18.558;2024-01-27T13:24:30;12.27;;;2.85;;
42912;SDS011;50720;54.324;18.558;2024-01-27T13:27:01;6.25;;;2.28;;
42912;SDS011;50720;54.324;18.558;2024-01-27T13:29:32;6.97;;;1.60;;
42912;SDS011;50720;54.324;18.558;2024-01-27T13:32:02;4.28;;;2.33;;
42912;SDS011;50720;54.324;18.558;2024-01-27T13:34:32;12.70;;;2.00;;
42912;SDS011;50720;54.324;18.558;2024-01-27T13:37:03;3.80;;;1.60;;
42912;SDS011;50720;54.324;18.558;2024-01-27T13:39:33;6.88;;;1.95;;
42912;SDS011;50720;54.324;18.558;2024-01-27T13:42:04;8.65;;;2.33;;
42912;SDS011;50720;54.324;18.558;2024-01-27T13:44:35;9.47;;;3.50;;
42912;SDS011;50720;54.324;18.558;2024-01-27T13:47:06;11.23;;;3.17;;
42912;SDS011;50720;54.324;18.558;2024-01-27T13:49:37;5.53;;;2.80;;
42912;SDS011;50720;54.324;18.558;2024-01-27T13:52:08;12.90;;;2.85;;
42912;SDS011;50720;54.324;18.558;2024-01-27T13:54:38;8.00;;;3.00;;
42912;SDS011;50720;54.324;18.558;2024-01-27T13:57:08;9.85;;;3.13;;
42912;SDS011;50720;54.324;18.558;2024-01-27T13:59:41;10.45;;;2.67;;
42912;SDS011;50720;54.324;18.558;2024-01-27T14:02:12;8.20;;;1.98;;
42912;SDS011;50720;54.324;18.558;2024-01-27T14:04:42;11.85;;;3.78;;
42912;SDS011;50720;54.324;18.558;2024-01-27T14:07:12;14.85;;;2.10;;
42912;SDS011;50720;54.324;18.558;2024-01-27T14:09:43;9.07;;;1.80;;
42912;SDS011;50720;54.324;18.558;2024-01-27T14:12:13;9.63;;;3.60;;
42912;SDS011;50720;54.324;18.558;2024-01-27T14:14:45;11.85;;;2.70;;
42912;SDS011;50720;54.324;18.558;2024-01-27T14:17:16;9.77;;;3.13;;
42912;SDS011;50720;54.324;18.558;2024-01-27T14:19:47;5.75;;;1.80;;
42912;SDS011;50720;54.324;18.558;2024-01-27T14:22:18;6.05;;;2.38;;
42912;SDS011;50720;54.324;18.558;2024-01-27T14:24:48;13.95;;;2.45;;
42912;SDS011;50720;54.324;18.558;2024-01-27T14:27:18;8.45;;;2.05;;
42912;SDS011;50720;54.324;18.558;2024-01-27T14:29:54;9.45;;;2.20;;
42912;SDS011;50720;54.324;18.558;2024-01-27T14:32:25;8.70;;;2.40;;
42912;SDS011;50720;54.324;18.558;2024-01-27T14:34:55;9.27;;;2.77;;
42912;SDS011;50720;54.324;18.558;2024-01-27T14:37:26;8.75;;;2.72;;
42912;SDS011;50720;54.324;18.558;2024-01-27T14:39:55;12.35;;;2.75;;
42912;SDS011;50720;54.324;18.558;2024-01-27T14:42:26;13.60;;;3.67;;
42912;SDS011;50720;54.324;18.558;2024-01-27T14:45:00;15.98;;;3.28;;
42912;SDS011;50720;54.324;18.558;2024-01-27T14:47:31;10.80;;;3.50;;
42912;SDS011;50720;54.324;18.558;2024-01-27T14:50:00;11.75;;;3.03;;
42912;SDS011;50720;54.324;18.558;2024-01-27T14:55:01;12.18;;;3.13;;
42912;SDS011;50720;54.324;18.558;2024-01-27T14:57:32;10.35;;;2.88;;
42912;SDS011;50720;54.324;18.558;2024-01-27T15:00:03;10.75;;;4.45;;
42912;SDS011;50720;54.324;18.558;2024-01-27T15:02:34;12.63;;;3.72;;
42912;SDS011;50720;54.324;18.558;2024-01-27T15:05:04;6.60;;;2.30;;
42912;SDS011;50720;54.324;18.558;2024-01-27T15:07:36;10.90;;;3.45;;